createdAt,value
2023-01-29T00:01:23.762Z,10.27
2023-01-29T00:06:25.895Z,10.85
2023-01-29T00:11:28.122Z,10.10
2023-01-29T00:16:30.441Z,9.85
2023-01-29T00:21:32.704Z,10.65
2023-01-29T00:26:35.025Z,9.63
2023-01-29T00:31:37.377Z,9.60
2023-01-29T00:36:39.727Z,10.00
2023-01-29T00:42:00.085Z,9.90
2023-01-29T00:47:03.195Z,10.10
2023-01-29T00:52:23.843Z,9.27
2023-01-29T01:02:47.872Z,10.23
2023-01-29T01:12:58.692Z,9.65
2023-01-29T01:18:02.581Z,12.05
2023-01-29T01:23:05.393Z,9.93
2023-01-29T01:28:07.509Z,10.63
2023-01-29T01:33:09.693Z,10.05
2023-01-29T01:38:12.092Z,9.48
2023-01-29T01:43:14.287Z,9.52
2023-01-29T01:48:22.157Z,10.43
2023-01-29T01:53:50.238Z,9.25
2023-01-29T01:58:58.987Z,10.32
2023-01-29T02:04:26.718Z,9.77
2023-01-29T02:09:59.314Z,9.43
2023-01-29T02:15:01.499Z,8.77
2023-01-29T02:20:17.951Z,9.43
2023-01-29T02:25:35.203Z,8.50
2023-01-29T02:30:44.822Z,9.32
2023-01-29T02:35:53.559Z,6.78
2023-01-29T02:41:11.616Z,9.15
2023-01-29T02:46:35.974Z,9.13
2023-01-29T02:51:47.533Z,8.50
2023-01-29T02:56:56.796Z,8.68
2023-01-29T03:02:14.251Z,9.63
2023-01-29T03:07:40.509Z,9.20
2023-01-29T03:12:47.093Z,8.95
2023-01-29T03:17:58.527Z,9.13
2023-01-29T03:23:12.090Z,9.65
2023-01-29T03:28:36.877Z,9.50
2023-01-29T03:34:16.850Z,9.80
2023-01-29T03:39:19.043Z,8.63
2023-01-29T03:44:40.628Z,9.80
2023-01-29T03:50:11.912Z,10.52
2023-01-29T03:55:49.243Z,10.63
2023-01-29T04:00:59.139Z,8.75
2023-01-29T04:06:10.179Z,9.85
2023-01-29T04:11:18.580Z,10.30
2023-01-29T04:16:32.550Z,10.95
2023-01-29T04:21:37.548Z,9.65
2023-01-29T04:27:04.207Z,10.20
2023-01-29T04:32:12.250Z,10.45
2023-01-29T04:37:20.774Z,10.23
2023-01-29T04:42:50.461Z,11.00
2023-01-29T04:48:12.482Z,11.00
2023-01-29T04:53:26.221Z,11.82
2023-01-29T04:58:38.723Z,12.00
2023-01-29T05:03:46.134Z,10.93
2023-01-29T05:08:51.510Z,13.63
2023-01-29T05:13:54.509Z,12.48
2023-01-29T05:18:56.830Z,14.68
2023-01-29T05:24:12.760Z,14.93
2023-01-29T05:29:15.119Z,13.85
2023-01-29T05:34:17.288Z,14.10
2023-01-29T05:39:19.877Z,13.77
2023-01-29T05:44:22.149Z,13.20
2023-01-29T05:49:24.445Z,13.70
2023-01-29T05:54:26.576Z,11.18
2023-01-29T05:59:31.412Z,11.32
2023-01-29T06:04:33.471Z,10.23
2023-01-29T06:09:35.587Z,10.43
2023-01-29T06:14:37.677Z,9.90
2023-01-29T06:19:39.810Z,21.05
2023-01-29T06:24:41.959Z,12.35
2023-01-29T06:29:44.148Z,10.32
2023-01-29T06:34:48.657Z,10.35
2023-01-29T06:39:51.849Z,11.10
2023-01-29T06:44:57.146Z,11.07
2023-01-29T06:49:59.319Z,11.48
2023-01-29T06:55:01.622Z,10.52
2023-01-29T07:00:04.778Z,12.07
2023-01-29T07:05:07.186Z,11.40
2023-01-29T07:10:09.845Z,11.63
2023-01-29T07:15:13.143Z,11.80
2023-01-29T07:20:15.655Z,11.45
2023-01-29T07:25:18.087Z,12.52
2023-01-29T07:30:20.374Z,12.65
2023-01-29T07:35:22.780Z,11.60
2023-01-29T07:40:24.888Z,12.55
2023-01-29T07:45:27.316Z,11.05
2023-01-29T07:50:29.564Z,11.20
2023-01-29T07:55:32.205Z,14.50
2023-01-29T08:00:34.287Z,14.02
2023-01-29T08:05:36.610Z,10.18
2023-01-29T08:10:40.655Z,10.23
2023-01-29T08:15:46.565Z,9.73
2023-01-29T08:20:48.604Z,9.75
2023-01-29T08:25:50.754Z,10.10
2023-01-29T08:30:53.025Z,10.35
2023-01-29T08:35:55.529Z,10.52
2023-01-29T08:40:58.005Z,9.25
2023-01-29T08:46:00.216Z,8.98
2023-01-29T08:51:02.903Z,7.88
2023-01-29T08:56:05.376Z,8.13
2023-01-29T09:01:12.275Z,8.52
2023-01-29T09:06:15.133Z,9.10
2023-01-29T09:11:17.436Z,8.75
2023-01-29T09:16:19.716Z,7.82
2023-01-29T09:21:21.985Z,8.77
2023-01-29T09:26:24.124Z,10.07
2023-01-29T09:31:26.367Z,8.60
2023-01-29T09:36:28.625Z,9.07
2023-01-29T09:41:39.583Z,13.93
2023-01-29T09:46:45.315Z,11.65
2023-01-29T09:51:53.117Z,10.88
2023-01-29T09:56:57.481Z,10.98
2023-01-29T10:02:05.716Z,13.43
2023-01-29T10:07:35.634Z,10.20
2023-01-29T10:12:53.149Z,10.30
2023-01-29T10:18:06.217Z,10.60
2023-01-29T10:23:29.768Z,11.90
2023-01-29T10:28:47.960Z,10.15
2023-01-29T10:34:02.024Z,10.65
2023-01-29T10:39:04.896Z,9.25
2023-01-29T10:44:42.103Z,9.88
2023-01-29T10:50:28.742Z,12.48
2023-01-29T10:55:48.333Z,9.80
2023-01-29T11:00:51.008Z,10.20
2023-01-29T11:06:20.300Z,10.52
2023-01-29T11:11:39.999Z,8.57
2023-01-29T11:16:45.543Z,9.77
2023-01-29T11:21:58.561Z,8.80
2023-01-29T11:27:01.140Z,8.85
2023-01-29T11:32:23.476Z,9.75
2023-01-29T11:37:33.747Z,8.85
2023-01-29T11:42:35.819Z,8.35
2023-01-29T11:47:38.067Z,29.77
2023-01-29T11:52:43.818Z,11.98
2023-01-29T11:58:11.835Z,11.35
2023-01-29T12:03:23.821Z,6.90
2023-01-29T12:08:34.558Z,7.88
2023-01-29T12:13:37.195Z,8.77
2023-01-29T12:18:44.842Z,7.25
2023-01-29T12:24:07.447Z,8.40
2023-01-29T12:29:31.146Z,10.27
2023-01-29T12:34:52.586Z,7.35
2023-01-29T12:39:55.055Z,8.60
2023-01-29T12:45:09.003Z,10.07
2023-01-29T12:50:21.818Z,7.45
2023-01-29T12:55:48.137Z,10.20
2023-01-29T13:00:55.032Z,7.20
2023-01-29T13:06:12.634Z,9.68
2023-01-29T13:11:31.591Z,14.90
2023-01-29T13:16:41.213Z,7.50
2023-01-29T13:21:45.309Z,7.85
2023-01-29T13:26:49.409Z,8.75
2023-01-29T13:31:54.370Z,8.45
2023-01-29T13:36:59.606Z,9.40
2023-01-29T13:42:15.195Z,7.38
2023-01-29T13:47:29.833Z,8.70
2023-01-29T13:52:34.952Z,8.90
2023-01-29T13:57:46.660Z,6.30
2023-01-29T14:03:14.250Z,7.25
2023-01-29T14:08:16.418Z,6.72
2023-01-29T14:13:18.550Z,8.27
2023-01-29T14:18:26.704Z,8.38
2023-01-29T14:23:31.441Z,9.05
2023-01-29T14:28:35.684Z,9.73
2023-01-29T14:33:43.461Z,14.38
2023-01-29T14:38:51.826Z,10.88
2023-01-29T14:44:32.813Z,9.90
2023-01-29T14:49:50.178Z,9.80
2023-01-29T14:54:54.837Z,9.27
2023-01-29T15:00:02.590Z,10.13
2023-01-29T15:05:11.176Z,11.82
2023-01-29T15:10:33.155Z,18.35
2023-01-29T15:15:35.376Z,16.63
2023-01-29T15:20:40.060Z,9.05
2023-01-29T15:25:53.889Z,13.48
2023-01-29T15:30:58.026Z,9.60
2023-01-29T15:36:08.816Z,10.98
2023-01-29T15:41:21.800Z,9.25
2023-01-29T15:46:37.627Z,13.65
2023-01-29T15:51:40.479Z,18.30
2023-01-29T15:56:48.946Z,26.35
2023-01-29T16:01:51.237Z,17.15
2023-01-29T16:06:55.014Z,17.55
2023-01-29T16:11:59.311Z,16.98
2023-01-29T16:17:36.434Z,15.35
2023-01-29T16:22:38.995Z,15.60
2023-01-29T16:27:43.872Z,13.30
2023-01-29T16:32:46.121Z,16.25
2023-01-29T16:37:51.039Z,13.82
2023-01-29T16:43:17.793Z,14.50
2023-01-29T16:48:31.183Z,20.88
2023-01-29T16:53:35.988Z,23.40
2023-01-29T16:58:38.181Z,19.85
2023-01-29T17:03:42.270Z,18.73
2023-01-29T17:08:45.058Z,14.25
2023-01-29T17:13:47.313Z,10.75
2023-01-29T17:18:49.840Z,12.68
2023-01-29T17:23:52.549Z,11.85
2023-01-29T17:28:55.569Z,11.75
2023-01-29T17:33:58.184Z,9.98
2023-01-29T17:39:01.571Z,12.00
2023-01-29T17:44:03.864Z,12.50
2023-01-29T17:49:27.091Z,10.07
2023-01-29T17:54:29.348Z,12.25
2023-01-29T17:59:33.649Z,11.57
2023-01-29T18:04:38.389Z,11.68
2023-01-29T18:09:42.679Z,11.15
2023-01-29T18:14:45.641Z,26.77
2023-01-29T18:19:48.428Z,27.83
2023-01-29T18:24:50.584Z,19.40
2023-01-29T18:29:52.709Z,17.10
2023-01-29T18:34:55.007Z,10.48
2023-01-29T18:39:57.216Z,8.30
2023-01-29T18:45:04.121Z,10.88
2023-01-29T18:50:07.770Z,12.65
2023-01-29T18:55:10.255Z,13.23
2023-01-29T19:00:12.694Z,15.23
2023-01-29T19:05:17.286Z,15.98
2023-01-29T19:10:19.831Z,12.50
2023-01-29T19:15:23.155Z,14.98
2023-01-29T19:20:25.516Z,18.33
2023-01-29T19:25:27.605Z,14.43
2023-01-29T19:30:29.815Z,15.20
2023-01-29T19:35:32.981Z,14.70
2023-01-29T19:40:36.164Z,14.82
2023-01-29T19:45:50.441Z,14.18
2023-01-29T19:50:53.768Z,13.48
2023-01-29T19:56:02.852Z,14.02
2023-01-29T20:01:17.074Z,12.93
2023-01-29T20:06:22.888Z,13.13
2023-01-29T20:11:25.844Z,10.93
2023-01-29T20:16:28.276Z,13.43
2023-01-29T20:21:30.540Z,15.98
2023-01-29T20:26:33.362Z,16.40
2023-01-29T20:31:35.572Z,20.52
2023-01-29T20:36:37.828Z,33.15
2023-01-29T20:41:41.935Z,23.65
2023-01-29T20:46:44.084Z,23.88
2023-01-29T20:51:47.131Z,19.42
2023-01-29T20:56:49.297Z,19.40
2023-01-29T21:01:51.975Z,15.05
2023-01-29T21:06:56.885Z,16.23
2023-01-29T21:11:59.009Z,18.17
2023-01-29T21:17:02.116Z,19.60
2023-01-29T21:22:05.023Z,16.23
2023-01-29T21:27:07.090Z,11.40
2023-01-29T21:32:10.249Z,11.80
2023-01-29T21:37:12.417Z,10.73
2023-01-29T21:42:33.048Z,10.65
2023-01-29T21:52:37.102Z,12.40
2023-01-29T21:57:39.300Z,14.00
2023-01-29T22:02:41.791Z,13.95
2023-01-29T22:07:44.692Z,14.52
2023-01-29T22:12:47.529Z,14.68
2023-01-29T22:17:50.415Z,12.15
2023-01-29T22:22:52.489Z,10.63
2023-01-29T22:27:54.725Z,9.05
2023-01-29T22:32:56.860Z,9.25
2023-01-29T22:37:59.011Z,9.80
2023-01-29T22:43:01.121Z,8.60
2023-01-29T22:48:03.267Z,9.25
2023-01-29T22:53:05.731Z,8.82
2023-01-29T22:58:07.829Z,8.82
2023-01-29T23:03:09.996Z,8.55
2023-01-29T23:08:12.276Z,9.05
2023-01-29T23:13:14.569Z,10.18
2023-01-29T23:18:16.881Z,9.38
2023-01-29T23:23:19.044Z,9.98
2023-01-29T23:28:21.221Z,9.27
2023-01-29T23:33:23.501Z,10.63
2023-01-29T23:38:25.845Z,10.63
2023-01-29T23:43:28.988Z,12.20
2023-01-29T23:48:31.172Z,11.35
2023-01-29T23:53:33.309Z,9.85
2023-01-29T23:58:35.482Z,10.88
